Time;durP1;ratioP1;P1;durP2;ratioP2;P2;SDS_P1;SDS_P2;PMS_P1;PMS_P2;Temp;Humidity;BMP_temperature;BMP_pressure;BME280_temperature;BME280_humidity;BME280_pressure;Samples;Min_cycle;Max_cycle;Signal;HPM_P1;HPM_P2
2023/04/05 00:00:42;;;;;;;;;;;;;;;0.02;100.00;96960.48;110514;1241;59661;-74
2023/04/05 00:03:16;;;;;;;;;;;;;;;-0.04;100.00;96962.04;110315;1241;59727;-74
2023/04/05 00:05:48;;;;;;;;;;;;;;;-0.05;100.00;96963.47;110493;1241;70527;-74
2023/04/05 00:08:25;;;;;;;;;;;;;;;-0.06;100.00;96959.39;110448;1240;69252;-76
2023/04/05 00:10:55;;;;;;;;;;;;;;;-0.06;100.00;96961.27;110445;1241;68436;-75
2023/04/05 00:13:26;;;;;;;;;;;;;;;-0.06;100.00;96967.09;110501;1241;59755;-74
2023/04/05 00:15:59;;;;;;;;;;;;;;;-0.04;100.00;96961.73;110448;1246;59650;-74
2023/04/05 00:18:33;;;;;;;;;;;;;;;-0.03;100.00;96963.39;110308;1241;70936;-74
2023/04/05 00:21:05;;;;;;;;;;;;;;;0.02;100.00;96965.28;110562;1241;68273;-75
2023/04/05 00:23:38;;;;;;;;;;;;;;;0.04;100.00;96965.55;110527;1241;69289;-74
2023/04/05 00:26:11;;;;;;;;;;;;;;;0.02;100.00;96965.77;110554;1241;59693;-74
2023/04/05 00:28:46;;;;;;;;;;;;;;;0.05;100.00;96962.73;110200;1241;59661;-74
2023/04/05 00:31:17;;;;;;;;;;;;;;;0.07;100.00;96962.17;110575;1241;71385;-74
2023/04/05 00:33:47;;;;;;;;;;;;;;;0.07;100.00;96962.67;110156;1241;68525;-74
2023/04/05 00:36:19;;;;;;;;;;;;;;;0.08;100.00;96961.77;110486;1241;69225;-74
2023/04/05 00:38:49;;;;;;;;;;;;;;;0.09;100.00;96961.20;110554;1241;60118;-74
2023/04/05 00:41:20;;;;;;;;;;;;;;;0.11;100.00;96960.82;110473;1241;59734;-74
2023/04/05 00:43:50;;;;;;;;;;;;;;;0.11;100.00;96957.58;110179;1243;70835;-74
2023/04/05 00:46:21;;;;;;;;;;;;;;;0.14;100.00;96955.05;110460;1241;69519;-75
2023/04/05 00:48:52;;;;;;;;;;;;;;;0.16;100.00;96956.17;110457;1240;69622;-74
2023/04/05 00:51:24;;;;;;;;;;;;;;;0.16;100.00;96953.75;110355;1241;59673;-74
2023/04/05 00:53:55;;;;;;;;;;;;;;;0.15;100.00;96953.11;110368;1241;59676;-74
2023/04/05 00:56:24;;;;;;;;;;;;;;;0.15;100.00;96950.55;110410;1241;71259;-74
2023/04/05 00:58:55;;;;;;;;;;;;;;;0.14;100.00;96949.71;110558;1241;68747;-74
2023/04/05 01:01:26;;;;;;;;;;;;;;;0.16;100.00;96947.94;110339;1248;69591;-74
2023/04/05 01:04:01;;;;;;;;;;;;;;;0.16;100.00;96945.02;110407;1241;59741;-74
2023/04/05 01:06:53;;;;;;;;;;;;;;;0.17;100.00;96944.98;110402;1241;59656;-75
2023/04/05 01:09:23;;;;;;;;;;;;;;;0.19;100.00;96947.14;110393;1242;71252;-74
2023/04/05 01:11:56;;;;;;;;;;;;;;;0.20;100.00;96950.52;110208;1241;68460;-74
2023/04/05 01:14:26;;;;;;;;;;;;;;;0.21;100.00;96949.78;110481;1242;68396;-75
2023/04/05 01:16:57;;;;;;;;;;;;;;;0.20;100.00;96949.64;110386;1241;59682;-74
2023/04/05 01:19:28;;;;;;;;;;;;;;;0.20;100.00;96947.45;110345;1241;59681;-75
2023/04/05 01:22:12;;;;;;;;;;;;;;;0.19;100.00;96944.38;110385;1241;70604;-74
2023/04/05 01:24:45;;;;;;;;;;;;;;;0.18;100.00;96943.91;110330;1239;68323;-75
2023/04/05 01:27:22;;;;;;;;;;;;;;;0.18;100.00;96947.35;110502;1248;69184;-74
2023/04/05 01:30:03;;;;;;;;;;;;;;;0.17;100.00;96946.36;110449;1242;59814;-74
2023/04/05 01:32:34;;;;;;;;;;;;;;;0.14;100.00;96947.14;110506;1241;59685;-74
2023/04/05 01:35:21;;;;;;;;;;;;;;;0.14;100.00;96948.89;110474;1243;70569;-73
2023/04/05 01:37:56;;;;;;;;;;;;;;;0.11;100.00;96949.50;110560;1242;68249;-74
2023/04/05 01:40:30;;;;;;;;;;;;;;;0.09;100.00;96946.81;110562;1241;69712;-74
2023/04/05 01:43:02;;;;;;;;;;;;;;;0.08;100.00;96947.20;110537;1242;60053;-75
2023/04/05 01:45:32;;;;;;;;;;;;;;;0.08;100.00;96946.54;110181;1241;59715;-74
2023/04/05 01:48:02;;;;;;;;;;;;;;;0.07;100.00;96950.66;110467;1241;71269;-74
2023/04/05 01:50:31;;;;;;;;;;;;;;;0.07;100.00;96951.72;110406;1240;68316;-74
2023/04/05 01:53:02;;;;;;;;;;;;;;;0.06;100.00;96954.33;110401;1241;68743;-74
2023/04/05 01:55:33;;;;;;;;;;;;;;;0.04;100.00;96953.86;110473;1241;59732;-74
2023/04/05 01:58:02;;;;;;;;;;;;;;;0.03;100.00;96958.03;110488;1241;59750;-73
2023/04/05 02:00:32;;;;;;;;;;;;;;;0.02;100.00;96960.47;110565;1241;71370;-74
2023/04/05 02:03:02;;;;;;;;;;;;;;;0.01;100.00;96958.63;110461;1239;68490;-74
2023/04/05 02:05:33;;;;;;;;;;;;;;;-0.04;100.00;96957.10;110466;1241;68353;-74
2023/04/05 02:08:03;;;;;;;;;;;;;;;-0.07;100.00;96954.96;110530;1242;59754;-74
2023/04/05 02:10:34;;;;;;;;;;;;;;;-0.08;100.00;96955.34;110534;1241;59679;-74
2023/04/05 02:13:06;;;;;;;;;;;;;;;-0.07;100.00;96953.59;110233;1243;70793;-74
2023/04/05 02:15:36;;;;;;;;;;;;;;;-0.05;100.00;96957.31;110223;1239;69208;-74
2023/04/05 02:18:12;;;;;;;;;;;;;;;-0.04;100.00;96954.88;110425;1241;68626;-74
2023/04/05 02:20:44;;;;;;;;;;;;;;;-0.03;100.00;96953.11;110182;1242;59725;-74
2023/04/05 02:23:15;;;;;;;;;;;;;;;-0.03;100.00;96951.55;110565;1240;59688;-75
2023/04/05 02:25:47;;;;;;;;;;;;;;;-0.03;100.00;96950.71;110449;1242;70458;-74
2023/04/05 02:28:22;;;;;;;;;;;;;;;-0.04;100.00;96951.08;110472;1241;69218;-76
2023/04/05 02:30:57;;;;;;;;;;;;;;;-0.04;100.00;96949.02;110523;1241;69284;-74
2023/04/05 02:33:30;;;;;;;;;;;;;;;-0.04;100.00;96949.91;110225;1244;60152;-75
2023/04/05 02:36:06;;;;;;;;;;;;;;;-0.05;100.00;96945.98;110189;1243;59711;-74
2023/04/05 02:38:38;;;;;;;;;;;;;;;-0.09;100.00;96943.39;110330;1240;71201;-74
2023/04/05 02:41:10;;;;;;;;;;;;;;;-0.10;100.00;96943.76;110566;1241;69120;-74
2023/04/05 02:43:39;;;;;;;;;;;;;;;-0.10;100.00;96943.27;110575;1241;69106;-74
2023/04/05 02:46:11;;;;;;;;;;;;;;;-0.12;100.00;96943.53;110592;1246;59759;-75
2023/04/05 02:48:43;;;;;;;;;;;;;;;-0.15;100.00;96942.75;110226;1241;59721;-76
2023/04/05 02:51:15;;;;;;;;;;;;;;;-0.15;100.00;96942.08;110248;1241;71383;-75
2023/04/05 02:53:47;;;;;;;;;;;;;;;-0.16;100.00;96941.92;110162;1240;69152;-75
2023/04/05 02:56:16;;;;;;;;;;;;;;;-0.15;100.00;96939.52;110206;1245;69287;-75
2023/04/05 02:58:50;;;;;;;;;;;;;;;-0.15;100.00;96937.46;110486;1241;59757;-74
2023/04/05 03:01:25;;;;;;;;;;;;;;;-0.17;100.00;96939.58;110568;1241;59689;-76
2023/04/05 03:03:55;;;;;;;;;;;;;;;-0.18;100.00;96937.40;110175;1243;71745;-75
2023/04/05 03:06:25;;;;;;;;;;;;;;;-0.18;100.00;96939.82;110558;1241;69229;-76
2023/04/05 03:08:56;;;;;;;;;;;;;;;-0.20;100.00;96939.87;110314;1240;67612;-75
2023/04/05 03:11:26;;;;;;;;;;;;;;;-0.20;100.00;96938.36;110203;1241;59807;-76
2023/04/05 03:13:58;;;;;;;;;;;;;;;-0.21;100.00;96941.98;110205;1243;59711;-75
2023/04/05 03:16:33;;;;;;;;;;;;;;;-0.22;100.00;96939.64;110203;1241;71862;-75
2023/04/05 03:19:10;;;;;;;;;;;;;;;-0.22;100.00;96936.36;110503;1239;69867;-75
2023/04/05 03:21:45;;;;;;;;;;;;;;;-0.23;100.00;96938.80;110528;1241;69701;-75
2023/04/05 03:24:25;;;;;;;;;;;;;;;-0.23;100.00;96944.61;110524;1241;59757;-76
2023/04/05 03:27:04;;;;;;;;;;;;;;;-0.27;100.00;96943.39;110230;1244;59710;-75
2023/04/05 03:29:54;;;;;;;;;;;;;;;-0.26;100.00;96947.30;110385;1240;70933;-74
2023/04/05 03:32:24;;;;;;;;;;;;;;;-0.26;100.00;96946.42;110148;1241;68731;-75
2023/04/05 03:35:15;;;;;;;;;;;;;;;-0.24;100.00;96949.29;110350;1241;69679;-74
2023/04/05 03:37:46;;;;;;;;;;;;;;;-0.23;100.00;96947.52;110283;1242;59667;-75
2023/04/05 03:40:16;;;;;;;;;;;;;;;-0.22;100.00;96943.55;110396;1241;59633;-77
2023/04/05 03:42:46;;;;;;;;;;;;;;;-0.20;100.00;96941.24;110183;1240;70421;-76
2023/04/05 03:45:17;;;;;;;;;;;;;;;-0.18;100.00;96938.45;110354;1239;69207;-76
2023/04/05 03:47:53;;;;;;;;;;;;;;;-0.17;100.00;96941.17;110276;1241;69444;-75
2023/04/05 03:50:23;;;;;;;;;;;;;;;-0.18;100.00;96946.83;110367;1241;59695;-74
2023/04/05 03:52:53;;;;;;;;;;;;;;;-0.17;100.00;96946.30;110413;1241;59646;-75
2023/04/05 03:55:23;;;;;;;;;;;;;;;-0.17;100.00;96947.30;110170;1240;70641;-75
2023/04/05 03:57:53;;;;;;;;;;;;;;;-0.16;100.00;96952.42;110413;1241;68493;-74
2023/04/05 04:00:33;;;;;;;;;;;;;;;-0.16;100.00;96952.55;110353;1241;69301;-76
2023/04/05 04:03:16;;;;;;;;;;;;;;;-0.17;100.00;96949.20;110337;1241;59724;-74
2023/04/05 04:05:49;;;;;;;;;;;;;;;-0.18;100.00;96943.05;110151;1242;59818;-74
2023/04/05 04:08:20;;;;;;;;;;;;;;;-0.19;100.00;96940.52;110123;1244;70648;-75
2023/04/05 04:10:49;;;;;;;;;;;;;;;-0.19;100.00;96937.95;110165;1240;69466;-75
2023/04/05 04:13:22;;;;;;;;;;;;;;;-0.16;100.00;96939.70;110276;1242;69170;-75
2023/04/05 04:16:12;;;;;;;;;;;;;;;-0.14;100.00;96935.38;110341;1242;59744;-75
2023/04/05 04:18:48;;;;;;;;;;;;;;;-0.11;100.00;96935.44;110332;1241;59741;-75
2023/04/05 04:21:47;;;;;;;;;;;;;;;-0.10;100.00;96938.13;110272;1241;71704;-74
2023/04/05 04:24:21;;;;;;;;;;;;;;;-0.09;100.00;96939.29;110280;1241;69823;-74
2023/04/05 04:27:10;;;;;;;;;;;;;;;-0.07;100.00;96940.04;110028;1241;69257;-75
2023/04/05 04:30:04;;;;;;;;;;;;;;;-0.04;100.00;96933.96;110242;1242;59703;-75
2023/04/05 04:32:53;;;;;;;;;;;;;;;0.00;100.00;96936.38;110319;1242;59683;-75
2023/04/05 04:35:45;;;;;;;;;;;;;;;0.06;100.00;96939.42;110281;1242;70923;-75
2023/04/05 04:38:41;;;;;;;;;;;;;;;0.09;100.00;96941.52;110224;1241;69869;-76
2023/04/05 04:41:32;;;;;;;;;;;;;;;0.13;100.00;96943.59;110229;1244;69707;-76
2023/04/05 04:44:27;;;;;;;;;;;;;;;0.20;100.00;96946.23;110293;1242;59676;-75
2023/04/05 04:47:25;;;;;;;;;;;;;;;0.25;100.00;96946.20;109853;1248;59701;-75
2023/04/05 04:50:15;;;;;;;;;;;;;;;0.33;100.00;96948.14;110267;1240;71907;-75
2023/04/05 04:52:45;;;;;;;;;;;;;;;0.39;100.00;96949.23;110270;1242;69088;-75
2023/04/05 04:55:14;;;;;;;;;;;;;;;0.40;100.00;96957.13;110311;1242;68505;-75
2023/04/05 04:57:46;;;;;;;;;;;;;;;0.41;100.00;96962.19;110289;1241;59753;-75
2023/04/05 05:00:15;;;;;;;;;;;;;;;0.45;100.00;96959.65;110328;1242;59693;-75
2023/04/05 05:02:46;;;;;;;;;;;;;;;0.50;100.00;96959.29;110201;1240;71954;-76
2023/04/05 05:05:16;;;;;;;;;;;;;;;0.56;100.00;96961.31;110211;1241;69231;-75
2023/04/05 05:07:46;;;;;;;;;;;;;;;0.58;100.00;96962.23;110333;1241;69970;-75
2023/04/05 05:10:15;;;;;;;;;;;;;;;0.63;100.00;96965.11;110333;1241;59670;-75
2023/04/05 05:12:44;;;;;;;;;;;;;;;0.68;100.00;96968.86;110363;1241;59659;-75
2023/04/05 05:15:15;;;;;;;;;;;;;;;0.73;100.00;96967.96;110266;1240;71589;-75
2023/04/05 05:17:44;;;;;;;;;;;;;;;0.83;100.00;96970.65;110364;1240;69215;-75
2023/04/05 05:20:13;;;;;;;;;;;;;;;0.90;100.00;96973.11;106012;1241;5517067;-75
2023/04/05 05:22:45;;;;;;;;;;;;;;;0.99;100.00;96977.85;110147;1243;59729;-75
2023/04/05 05:25:14;;;;;;;;;;;;;;;1.00;100.00;96978.48;110312;1242;59999;-75
2023/04/05 05:27:43;;;;;;;;;;;;;;;1.00;100.00;96980.38;110301;1240;71460;-75
2023/04/05 05:30:12;;;;;;;;;;;;;;;1.00;100.00;96979.90;110192;1240;69260;-75
2023/04/05 05:32:42;;;;;;;;;;;;;;;1.03;99.74;96980.95;110300;1241;68881;-75
2023/04/05 05:35:11;;;;;;;;;;;;;;;1.06;99.51;96982.56;110332;1242;59772;-75
2023/04/05 05:37:40;;;;;;;;;;;;;;;1.11;100.00;96981.14;110294;1242;59667;-77
2023/04/05 05:40:12;;;;;;;;;;;;;;;1.17;99.97;96978.86;110256;1240;71435;-77
2023/04/05 05:42:41;;;;;;;;;;;;;;;1.17;99.77;96981.41;110312;1240;69191;-77
2023/04/05 05:45:09;;;;;;;;;;;;;;;1.21;99.61;96981.95;110265;1241;69872;-77
2023/04/05 05:47:40;;;;;;;;;;;;;;;1.28;99.17;96978.36;110311;1241;59712;-77
2023/04/05 05:50:10;;;;;;;;;;;;;;;1.38;99.57;96981.72;110351;1242;59647;-77
2023/04/05 05:52:39;;;;;;;;;;;;;;;1.41;95.38;96983.14;110403;1242;71390;-77
2023/04/05 05:55:08;;;;;;;;;;;;;;;1.53;96.75;96977.29;110292;1241;69232;-77
2023/04/05 05:57:37;;;;;;;;;;;;;;;1.59;95.78;96980.83;110339;1241;68727;-77
2023/04/05 06:00:10;;;;;;;;;;;;;;;1.63;95.41;96976.17;110411;1242;59706;-77
2023/04/05 06:02:38;;;;;;;;;;;;;;;1.62;96.11;96973.45;110388;1242;59697;-77
2023/04/05 06:05:07;;;;;;;;;;;;;;;1.77;98.39;96970.23;110339;1242;70908;-77
2023/04/05 06:07:36;;;;;;;;;;;;;;;1.82;95.47;96971.70;110546;1241;69088;-77
2023/04/05 06:10:06;;;;;;;;;;;;;;;1.92;95.87;96969.55;110569;1239;69074;-77
2023/04/05 06:12:37;;;;;;;;;;;;;;;1.94;94.40;96968.08;110466;1241;59680;-78
2023/04/05 06:15:07;;;;;;;;;;;;;;;1.99;95.11;96969.20;110556;1240;59702;-77
2023/04/05 06:17:41;;;;;;;;;;;;;;;2.11;96.37;96968.34;110570;1241;71976;-77
2023/04/05 06:20:10;;;;;;;;;;;;;;;2.23;95.99;96971.76;110615;1239;69234;-76
2023/04/05 06:22:40;;;;;;;;;;;;;;;2.38;95.86;96971.71;110554;1242;69690;-77
2023/04/05 06:25:10;;;;;;;;;;;;;;;2.51;95.60;96976.08;110621;1239;59740;-77
2023/04/05 06:27:39;;;;;;;;;;;;;;;2.66;94.90;96979.52;110595;1239;59716;-77
2023/04/05 06:30:08;;;;;;;;;;;;;;;2.76;93.83;96980.40;110534;1241;71391;-77
2023/04/05 06:32:37;;;;;;;;;;;;;;;2.91;93.20;96977.61;110523;1239;69290;-77
2023/04/05 06:35:06;;;;;;;;;;;;;;;3.06;94.72;96982.70;110464;1242;68716;-78
2023/04/05 06:37:35;;;;;;;;;;;;;;;3.10;92.30;96982.33;110567;1241;59745;-76
2023/04/05 06:40:04;;;;;;;;;;;;;;;3.24;92.64;96986.14;110674;1238;59990;-75
2023/04/05 06:42:33;;;;;;;;;;;;;;;3.30;90.38;96984.45;110639;1240;70650;-76
2023/04/05 06:45:03;;;;;;;;;;;;;;;3.36;89.37;96985.72;110453;1242;69189;-76
2023/04/05 06:47:35;;;;;;;;;;;;;;;3.40;89.33;96993.93;110526;1239;69257;-76
2023/04/05 06:50:05;;;;;;;;;;;;;;;3.47;89.67;96999.23;110720;1238;59742;-76
2023/04/05 06:52:34;;;;;;;;;;;;;;;3.57;88.15;96997.38;110471;1240;59659;-76
2023/04/05 06:55:03;;;;;;;;;;;;;;;3.63;87.08;96997.92;110636;1238;70298;-76
2023/04/05 06:57:33;;;;;;;;;;;;;;;3.66;87.49;97003.10;110705;1241;68848;-76
2023/04/05 07:00:07;;;;;;;;;;;;;;;3.69;87.23;97006.61;110559;1240;68004;-77
2023/04/05 07:02:36;;;;;;;;;;;;;;;3.56;86.08;97006.71;110578;1239;59709;-76
2023/04/05 07:05:06;;;;;;;;;;;;;;;3.64;84.52;97013.52;110559;1238;59657;-77
2023/04/05 07:07:39;;;;;;;;;;;;;;;3.82;87.12;97013.48;110336;1238;71357;-77
2023/04/05 07:10:09;;;;;;;;;;;;;;;3.85;85.47;97012.29;110543;1238;69225;-77
2023/04/05 07:12:40;;;;;;;;;;;;;;;3.97;85.76;97012.02;110402;1238;68827;-77
2023/04/05 07:15:09;;;;;;;;;;;;;;;4.07;85.34;97012.86;110597;1241;59750;-78
2023/04/05 07:17:37;;;;;;;;;;;;;;;4.13;84.02;97012.88;110514;1238;59707;-78
2023/04/05 07:20:07;;;;;;;;;;;;;;;4.21;83.92;97015.72;110690;1238;71891;-78
2023/04/05 07:22:36;;;;;;;;;;;;;;;4.29;83.75;97014.63;110461;1241;69224;-78
2023/04/05 07:25:07;;;;;;;;;;;;;;;3.86;78.99;97016.73;110612;1241;69420;-78
2023/04/05 07:27:36;;;;;;;;;;;;;;;3.96;82.32;97018.47;110466;1241;59664;-77
2023/04/05 07:30:05;;;;;;;;;;;;;;;4.20;85.43;97018.73;110481;1240;59686;-77
2023/04/05 07:32:35;;;;;;;;;;;;;;;4.27;81.61;97017.64;110548;1242;71954;-77
2023/04/05 07:35:04;;;;;;;;;;;;;;;4.21;78.53;97017.61;110419;1241;68410;-77
2023/04/05 07:37:34;;;;;;;;;;;;;;;4.40;82.55;97018.84;110375;1241;68370;-78
2023/04/05 07:40:04;;;;;;;;;;;;;;;4.56;82.14;97019.17;110480;1241;59668;-76
2023/04/05 07:42:36;;;;;;;;;;;;;;;4.66;80.91;97018.10;110375;1238;59731;-78
2023/04/05 07:45:05;;;;;;;;;;;;;;;4.58;80.16;97016.65;110546;1242;71296;-77
2023/04/05 07:47:34;;;;;;;;;;;;;;;4.65;78.01;97012.96;110530;1243;70250;-78
2023/04/05 07:50:04;;;;;;;;;;;;;;;4.86;78.18;97013.88;110373;1241;69288;-78
2023/04/05 07:52:32;;;;;;;;;;;;;;;5.09;77.40;97012.95;110559;1241;59701;-77
2023/04/05 07:55:01;;;;;;;;;;;;;;;5.20;77.36;97015.42;110553;1241;59676;-78
2023/04/05 07:57:30;;;;;;;;;;;;;;;5.33;77.96;97022.45;110438;1242;71718;-77
2023/04/05 07:59:59;;;;;;;;;;;;;;;5.48;77.25;97022.91;110532;1241;70390;-79
2023/04/05 08:02:27;;;;;;;;;;;;;;;5.38;74.91;97025.61;110560;1242;69289;-78
2023/04/05 08:04:56;;;;;;;;;;;;;;;5.48;76.90;97024.84;110433;1240;59670;-79
2023/04/05 08:07:26;;;;;;;;;;;;;;;5.52;76.78;97027.17;110516;1241;59635;-78
2023/04/05 08:09:56;;;;;;;;;;;;;;;5.59;75.51;97027.64;110620;1238;71991;-79
2023/04/05 08:12:25;;;;;;;;;;;;;;;5.54;76.09;97027.39;110584;1241;69098;-78
2023/04/05 08:14:54;;;;;;;;;;;;;;;5.23;72.56;97029.03;110582;1240;68558;-79
2023/04/05 08:17:25;;;;;;;;;;;;;;;5.06;72.46;97028.48;110620;1240;59714;-78
2023/04/05 08:19:55;;;;;;;;;;;;;;;5.21;75.53;97031.77;110441;1242;59709;-79
2023/04/05 08:22:26;;;;;;;;;;;;;;;5.30;74.40;97031.59;110279;1243;71279;-79
2023/04/05 08:24:55;;;;;;;;;;;;;;;5.28;76.14;97031.86;110408;1241;68457;-79
2023/04/05 08:27:24;;;;;;;;;;;;;;;5.29;75.29;97037.23;110377;1241;69865;-79
2023/04/05 08:29:53;;;;;;;;;;;;;;;5.28;76.15;97033.95;110671;1241;59661;-78
2023/04/05 08:32:22;;;;;;;;;;;;;;;5.21;75.92;97034.70;110420;1239;59734;-78
2023/04/05 08:34:51;;;;;;;;;;;;;;;5.14;76.58;97028.71;110563;1241;71941;-79
2023/04/05 08:37:20;;;;;;;;;;;;;;;4.73;74.26;97028.91;110448;1242;69168;-79
2023/04/05 08:39:49;;;;;;;;;;;;;;;4.53;76.28;97029.55;110517;1241;69879;-79
2023/04/05 08:42:22;;;;;;;;;;;;;;;4.61;77.95;97027.05;110574;1241;59681;-80
2023/04/05 08:44:52;;;;;;;;;;;;;;;4.67;78.66;97026.16;110626;1241;59685;-78
2023/04/05 08:47:22;;;;;;;;;;;;;;;4.86;79.83;97032.55;111650;1241;71349;-78
2023/04/05 08:49:52;;;;;;;;;;;;;;;4.84;78.69;97032.30;110897;1241;68422;-80
2023/04/05 08:52:21;;;;;;;;;;;;;;;4.91;79.61;97032.77;110517;1241;68335;-79
2023/04/05 08:54:53;;;;;;;;;;;;;;;5.03;78.96;97034.18;110517;1241;59698;-79
2023/04/05 08:57:24;;;;;;;;;;;;;;;5.04;78.10;97037.40;110589;1240;59701;-79
2023/04/05 08:59:54;;;;;;;;;;;;;;;4.91;77.98;97039.15;110676;1241;71349;-79
2023/04/05 09:02:24;;;;;;;;;;;;;;;4.87;77.50;97039.89;110543;1241;69220;-79
2023/04/05 09:04:53;;;;;;;;;;;;;;;5.00;77.79;97045.20;110589;1241;69095;-79
2023/04/05 09:07:22;;;;;;;;;;;;;;;5.14;77.65;97049.80;110599;1241;59742;-79
2023/04/05 09:09:52;;;;;;;;;;;;;;;5.19;75.23;97054.91;110542;1241;59696;-79
2023/04/05 09:12:23;;;;;;;;;;;;;;;5.27;75.87;97050.25;110574;1241;71336;-79
2023/04/05 09:14:52;;;;;;;;;;;;;;;5.43;75.82;97052.48;110627;1241;68883;-79
2023/04/05 09:17:21;;;;;;;;;;;;;;;5.53;74.62;97052.71;110552;1241;69235;-79
2023/04/05 09:19:50;;;;;;;;;;;;;;;5.58;75.35;97051.92;110536;1240;59687;-79
2023/04/05 09:22:19;;;;;;;;;;;;;;;5.57;75.14;97052.50;110669;1241;59696;-79
2023/04/05 09:24:48;;;;;;;;;;;;;;;5.67;75.47;97053.50;110497;1241;70997;-80
2023/04/05 09:27:20;;;;;;;;;;;;;;;5.78;71.83;97055.75;110439;1239;68467;-79
2023/04/05 09:29:56;;;;;;;;;;;;;;;5.67;67.99;97051.89;110534;1240;68890;-79
2023/04/05 09:32:28;;;;;;;;;;;;;;;5.41;67.86;97046.67;110622;1240;59690;-79
2023/04/05 09:35:03;;;;;;;;;;;;;;;5.57;69.48;97047.30;110566;1241;59791;-79
2023/04/05 09:37:34;;;;;;;;;;;;;;;5.78;71.50;97051.28;110525;1240;71390;-79
2023/04/05 09:40:03;;;;;;;;;;;;;;;6.06;71.94;97048.08;110576;1241;69849;-79
2023/04/05 09:42:44;;;;;;;;;;;;;;;6.08;69.41;97046.69;110609;1241;69938;-79
2023/04/05 09:45:17;;;;;;;;;;;;;;;6.10;70.12;97048.51;110556;1241;59697;-80
2023/04/05 09:47:56;;;;;;;;;;;;;;;6.07;69.65;97048.70;110725;1240;59656;-79
2023/04/05 09:50:26;;;;;;;;;;;;;;;6.02;69.55;97049.47;110385;1242;71965;-79
2023/04/05 09:53:14;;;;;;;;;;;;;;;5.87;68.65;97049.56;110623;1240;69247;-79
2023/04/05 09:55:44;;;;;;;;;;;;;;;5.97;69.06;97048.78;110554;1241;69127;-79
2023/04/05 09:58:21;;;;;;;;;;;;;;;5.93;68.24;97049.16;110555;1241;59759;-78
2023/04/05 10:00:52;;;;;;;;;;;;;;;6.10;70.47;97052.48;110536;1238;59663;-78
2023/04/05 10:03:47;;;;;;;;;;;;;;;6.13;70.45;97051.97;110407;1240;71797;-77
2023/04/05 10:06:16;;;;;;;;;;;;;;;6.15;70.99;97049.58;110324;1241;69822;-78
2023/04/05 10:08:46;;;;;;;;;;;;;;;6.26;69.47;97050.83;110341;1241;67516;-78
2023/04/05 10:11:17;;;;;;;;;;;;;;;6.24;69.23;97049.73;110367;1240;59766;-78
2023/04/05 10:13:48;;;;;;;;;;;;;;;6.21;67.72;97047.66;110477;1240;59692;-78
2023/04/05 10:16:21;;;;;;;;;;;;;;;6.25;68.96;97054.90;110371;1240;71874;-78
2023/04/05 10:18:50;;;;;;;;;;;;;;;6.21;66.48;97050.95;110509;1241;68316;-78
2023/04/05 10:21:21;;;;;;;;;;;;;;;6.31;67.01;97052.06;110477;1242;69703;-78
2023/04/05 10:23:54;;;;;;;;;;;;;;;6.50;69.67;97053.70;110449;1241;59723;-78
2023/04/05 10:26:39;;;;;;;;;;;;;;;6.67;68.26;97052.79;110626;1241;59700;-78
2023/04/05 10:29:18;;;;;;;;;;;;;;;6.56;64.62;97051.23;110568;1241;72028;-78
2023/04/05 10:31:50;;;;;;;;;;;;;;;6.75;67.99;97048.84;110442;1241;69813;-78
2023/04/05 10:34:26;;;;;;;;;;;;;;;6.67;63.35;97051.23;110469;1241;69309;-79
2023/04/05 10:37:00;;;;;;;;;;;;;;;6.81;66.58;97056.23;110553;1242;59741;-78
2023/04/05 10:39:33;;;;;;;;;;;;;;;6.92;65.14;97054.30;110523;1241;59686;-79
2023/04/05 10:42:21;;;;;;;;;;;;;;;7.00;62.63;97058.48;110564;1239;70237;-79
2023/04/05 10:44:59;;;;;;;;;;;;;;;6.97;62.31;97053.84;110538;1241;69827;-80
2023/04/05 10:47:30;;;;;;;;;;;;;;;6.85;64.28;97052.17;110381;1241;69289;-79
2023/04/05 10:50:02;;;;;;;;;;;;;;;7.02;65.01;97051.64;110440;1241;59690;-79
2023/04/05 10:52:32;;;;;;;;;;;;;;;6.93;64.56;97050.97;110445;1242;59689;-78
2023/04/05 10:55:02;;;;;;;;;;;;;;;6.99;65.67;97051.98;110566;1242;70650;-79
2023/04/05 10:57:31;;;;;;;;;;;;;;;6.98;64.75;97059.45;110625;1241;69834;-78
2023/04/05 11:00:00;;;;;;;;;;;;;;;6.83;64.66;97051.58;110337;1241;69353;-79
2023/04/05 11:02:29;;;;;;;;;;;;;;;6.55;64.07;97050.73;110617;1242;59754;-77
2023/04/05 11:05:03;;;;;;;;;;;;;;;6.24;64.92;97054.05;110433;1240;59750;-78
2023/04/05 11:07:43;;;;;;;;;;;;;;;6.38;66.84;97056.11;110560;1240;70644;-77
2023/04/05 11:10:16;;;;;;;;;;;;;;;6.31;64.73;97058.84;110472;1240;69272;-78
2023/04/05 11:12:47;;;;;;;;;;;;;;;6.20;65.69;97060.36;110561;1242;69264;-78
2023/04/05 11:15:28;;;;;;;;;;;;;;;6.24;66.46;97059.77;110492;1242;59746;-77
2023/04/05 11:18:05;;;;;;;;;;;;;;;6.11;65.38;97059.70;110413;1241;59627;-78
2023/04/05 11:20:43;;;;;;;;;;;;;;;6.03;66.70;97061.04;110553;1238;71233;-78
2023/04/05 11:23:13;;;;;;;;;;;;;;;6.10;67.64;97061.64;110644;1240;69234;-77
2023/04/05 11:26:05;;;;;;;;;;;;;;;6.20;66.38;97062.81;110433;1241;69838;-78
2023/04/05 11:28:40;;;;;;;;;;;;;;;6.26;67.14;97057.44;110477;1242;59740;-78
2023/04/05 11:31:21;;;;;;;;;;;;;;;6.33;67.33;97059.76;110575;1241;59671;-78
2023/04/05 11:33:54;;;;;;;;;;;;;;;6.43;65.85;97058.84;110649;1239;71402;-78
2023/04/05 11:36:30;;;;;;;;;;;;;;;6.58;66.69;97056.27;110748;1242;68582;-78
2023/04/05 11:39:18;;;;;;;;;;;;;;;6.56;65.15;97055.23;110801;1241;68534;-79
2023/04/05 11:41:54;;;;;;;;;;;;;;;6.76;66.50;97050.30;110538;1238;59674;-79
2023/04/05 11:44:23;;;;;;;;;;;;;;;7.00;66.10;97056.04;110501;1238;59754;-79
2023/04/05 11:46:52;;;;;;;;;;;;;;;7.10;65.08;97057.67;110682;1238;70415;-79
2023/04/05 11:49:23;;;;;;;;;;;;;;;7.27;64.90;97057.27;110779;1240;69090;-78
2023/04/05 11:51:52;;;;;;;;;;;;;;;7.33;64.23;97054.94;110730;1241;68436;-79
2023/04/05 11:54:33;;;;;;;;;;;;;;;7.42;64.35;97055.42;110613;1241;59701;-79
2023/04/05 11:57:02;;;;;;;;;;;;;;;7.46;62.20;97055.31;110655;1241;59686;-79
2023/04/05 11:59:32;;;;;;;;;;;;;;;7.48;63.40;97056.73;110654;1242;70463;-78
2023/04/05 12:02:03;;;;;;;;;;;;;;;7.33;62.00;97054.46;110565;1241;69189;-79
2023/04/05 12:04:32;;;;;;;;;;;;;;;7.28;62.87;97060.67;110583;1242;69288;-78
2023/04/05 12:07:07;;;;;;;;;;;;;;;7.31;64.20;97058.72;110311;1244;59979;-78
2023/04/05 12:09:35;;;;;;;;;;;;;;;7.36;63.87;97057.55;110171;1245;59712;-78
2023/04/05 12:12:04;;;;;;;;;;;;;;;7.42;64.31;97057.88;110171;1241;70627;-78
2023/04/05 12:14:33;;;;;;;;;;;;;;;7.39;63.09;97057.67;110310;1244;68040;-79
2023/04/05 12:17:01;;;;;;;;;;;;;;;7.37;62.92;97050.92;110255;1245;69297;-79
2023/04/05 12:19:30;;;;;;;;;;;;;;;7.36;63.63;97048.39;110225;1242;59744;-78
2023/04/05 12:21:58;;;;;;;;;;;;;;;7.49;63.93;97049.41;110290;1242;59701;-79
2023/04/05 12:24:27;;;;;;;;;;;;;;;7.57;62.57;97050.09;110213;1243;70913;-79
2023/04/05 12:26:56;;;;;;;;;;;;;;;7.47;60.22;97048.34;110382;1242;68882;-78
2023/04/05 12:29:27;;;;;;;;;;;;;;;7.34;60.50;97044.70;110302;1243;68703;-75
2023/04/05 12:31:56;;;;;;;;;;;;;;;7.43;62.58;97047.76;110305;1243;59736;-78
2023/04/05 12:34:25;;;;;;;;;;;;;;;7.56;62.58;97054.30;110380;1248;59695;-78
2023/04/05 12:36:53;;;;;;;;;;;;;;;7.66;63.05;97054.02;110268;1242;70263;-78
2023/04/05 12:39:23;;;;;;;;;;;;;;;7.62;62.05;97056.35;110160;1240;68383;-75
2023/04/05 12:41:59;;;;;;;;;;;;;;;7.69;62.39;97057.26;110411;1242;69317;-78
2023/04/05 12:44:31;;;;;;;;;;;;;;;7.63;61.19;97057.52;110272;1242;59751;-78
2023/04/05 12:47:08;;;;;;;;;;;;;;;7.65;60.89;97051.11;110143;1245;59631;-78
2023/04/05 12:49:37;;;;;;;;;;;;;;;7.71;60.71;97053.02;110190;1241;71465;-78
2023/04/05 12:52:06;;;;;;;;;;;;;;;7.76;61.87;97049.55;110122;1244;69217;-78
2023/04/05 12:54:35;;;;;;;;;;;;;;;7.79;61.52;97050.34;110254;1243;68651;-78
2023/04/05 12:57:07;;;;;;;;;;;;;;;7.66;60.64;97045.84;110250;1240;59735;-78
2023/04/05 12:59:36;;;;;;;;;;;;;;;7.42;59.30;97047.30;110303;1242;59725;-78
2023/04/05 13:02:05;;;;;;;;;;;;;;;7.26;60.93;97046.09;110305;1243;71913;-78
2023/04/05 13:04:34;;;;;;;;;;;;;;;7.31;61.04;97046.05;110266;1244;69677;-79
2023/04/05 13:07:03;;;;;;;;;;;;;;;7.28;59.81;97044.23;110210;1245;69856;-79